createdAt,value
2022-08-09T00:00:01.028Z,10.73
2022-08-09T00:02:34.063Z,13.10
2022-08-09T00:06:15.395Z,11.30
2022-08-09T00:07:48.950Z,10.88
2022-08-09T00:10:17.934Z,11.23
2022-08-09T00:12:51.540Z,10.80
2022-08-09T00:15:19.949Z,11.30
2022-08-09T00:18:07.570Z,10.80
2022-08-09T00:20:42.381Z,10.93
2022-08-09T00:23:54.841Z,10.05
2022-08-09T00:26:11.136Z,10.32
2022-08-09T00:28:39.665Z,10.35
2022-08-09T00:31:56.811Z,10.18
2022-08-09T00:33:55.366Z,10.18
2022-08-09T00:36:29.581Z,10.50
2022-08-09T00:38:58.453Z,9.52
2022-08-09T00:44:13.223Z,11.10
2022-08-09T00:44:25.434Z,9.98
2022-08-09T00:47:05.404Z,10.60
2022-08-09T00:49:38.948Z,11.25
2022-08-09T00:52:17.245Z,10.00
2022-08-09T00:54:45.610Z,10.93
2022-08-09T00:57:12.799Z,10.73
2022-08-09T00:59:46.460Z,10.73
2022-08-09T01:02:27.723Z,11.35
2022-08-09T01:05:03.567Z,10.95
2022-08-09T01:08:00.321Z,11.32
2022-08-09T01:10:35.895Z,11.85
2022-08-09T01:13:09.263Z,10.93
2022-08-09T01:15:52.158Z,11.18
2022-08-09T01:18:31.457Z,10.25
2022-08-09T01:21:17.066Z,10.80
2022-08-09T01:24:11.119Z,9.73
2022-08-09T01:27:09.653Z,13.10
2022-08-09T01:29:55.712Z,9.80
2022-08-09T01:32:34.055Z,12.05
2022-08-09T01:35:29.124Z,10.23
2022-08-09T01:38:09.305Z,9.70
2022-08-09T01:40:41.466Z,9.45
2022-08-09T01:43:10.070Z,11.20
2022-08-09T01:45:46.283Z,11.73
2022-08-09T01:48:29.487Z,10.57
2022-08-09T01:50:58.680Z,11.38
2022-08-09T01:53:29.291Z,10.52
2022-08-09T01:56:11.234Z,10.13
2022-08-09T01:58:40.286Z,10.05
2022-08-09T02:01:09.153Z,10.85
2022-08-09T02:03:37.229Z,11.20
2022-08-09T02:06:07.379Z,11.32
2022-08-09T02:08:57.916Z,9.95
2022-08-09T02:11:42.638Z,11.85
2022-08-09T02:16:53.243Z,10.73
2022-08-09T02:19:38.538Z,12.13
2022-08-09T02:22:16.879Z,9.85
2022-08-09T02:24:52.009Z,11.25
2022-08-09T02:27:43.127Z,10.00
2022-08-09T02:30:12.693Z,9.57
2022-08-09T02:32:46.195Z,11.15
2022-08-09T02:36:02.491Z,10.93
2022-08-09T02:38:27.948Z,11.77
2022-08-09T02:41:01.104Z,11.82
2022-08-09T02:43:54.235Z,10.82
2022-08-09T02:46:18.930Z,9.90
2022-08-09T02:48:46.978Z,8.85
2022-08-09T02:51:20.451Z,10.88
2022-08-09T02:54:00.533Z,11.70
2022-08-09T02:56:30.576Z,10.05
2022-08-09T02:58:59.728Z,10.93
2022-08-09T03:01:29.638Z,9.77
2022-08-09T03:04:19.165Z,11.43
2022-08-09T03:06:49.011Z,10.18
2022-08-09T03:09:18.204Z,13.52
2022-08-09T03:12:06.210Z,10.00
2022-08-09T03:14:37.474Z,7.82
2022-08-09T03:17:05.523Z,9.55
2022-08-09T03:19:59.311Z,8.93
2022-08-09T03:22:25.467Z,7.85
2022-08-09T03:25:05.665Z,11.70
2022-08-09T03:27:49.995Z,8.73
2022-08-09T03:30:28.107Z,8.20
2022-08-09T03:33:01.980Z,12.07
2022-08-09T03:36:11.602Z,9.15
2022-08-09T03:38:28.781Z,9.35
2022-08-09T03:40:56.304Z,11.05
2022-08-09T03:43:22.979Z,11.07
2022-08-09T03:46:04.228Z,9.55
2022-08-09T03:48:37.517Z,12.13
2022-08-09T03:51:55.696Z,10.48
2022-08-09T03:54:06.309Z,10.75
2022-08-09T03:56:41.328Z,8.98
2022-08-09T03:59:20.961Z,9.68
2022-08-09T04:15:00.276Z,68.65
2022-08-09T04:17:29.506Z,56.78
2022-08-09T04:19:56.543Z,24.38
2022-08-09T04:22:23.779Z,37.83
2022-08-09T04:24:50.841Z,84.53
2022-08-09T04:27:22.022Z,76.75
2022-08-09T04:29:49.539Z,16.58
2022-08-09T04:32:31.335Z,27.33
2022-08-09T04:35:02.625Z,61.22
2022-08-09T04:37:45.306Z,23.42
2022-08-09T04:40:19.010Z,77.22
2022-08-09T04:42:48.581Z,23.80
2022-08-09T04:45:20.557Z,29.00
2022-08-09T04:48:00.923Z,33.13
2022-08-09T04:50:33.709Z,50.42
2022-08-09T04:53:02.199Z,41.28
2022-08-09T04:55:37.855Z,38.95
2022-08-09T04:58:10.694Z,192.27
2022-08-09T05:00:40.615Z,100.40
2022-08-09T05:03:30.653Z,55.97
2022-08-09T05:06:06.680Z,47.47
2022-08-09T05:08:34.969Z,25.48
2022-08-09T05:11:03.370Z,28.40
2022-08-09T05:13:38.823Z,41.25
2022-08-09T05:16:10.145Z,124.88
2022-08-09T05:18:50.461Z,42.45
2022-08-09T05:21:29.690Z,38.05
2022-08-09T05:24:01.243Z,31.02
2022-08-09T05:26:36.392Z,37.83
2022-08-09T05:29:17.499Z,45.80
2022-08-09T05:31:46.655Z,31.98
2022-08-09T05:34:17.695Z,61.83
2022-08-09T05:36:47.046Z,25.17
2022-08-09T05:39:29.561Z,34.20
2022-08-09T05:42:04.416Z,35.17
2022-08-09T05:44:34.980Z,45.10
2022-08-09T05:47:04.960Z,33.80
2022-08-09T05:50:23.132Z,38.20
2022-08-09T05:52:19.597Z,39.45
2022-08-09T05:54:46.395Z,33.88
2022-08-09T05:57:17.615Z,22.25
2022-08-09T05:59:46.461Z,33.60
2022-08-09T06:02:16.967Z,43.35
2022-08-09T06:04:46.080Z,32.58
2022-08-09T06:07:21.409Z,30.63
2022-08-09T06:09:54.344Z,43.67
2022-08-09T06:12:29.919Z,48.42
2022-08-09T06:15:01.124Z,28.95
2022-08-09T06:17:40.519Z,29.98
2022-08-09T06:20:09.327Z,44.90
2022-08-09T06:22:36.858Z,37.03
2022-08-09T06:25:04.252Z,31.80
2022-08-09T06:27:42.913Z,32.22
2022-08-09T06:30:16.079Z,22.83
2022-08-09T06:32:59.712Z,28.58
2022-08-09T06:35:55.702Z,25.95
2022-08-09T06:38:19.217Z,23.27
2022-08-09T06:40:46.170Z,18.85
2022-08-09T06:43:14.187Z,24.80
2022-08-09T06:46:05.305Z,16.75
2022-08-09T06:48:30.985Z,18.00
2022-08-09T06:50:59.919Z,24.92
2022-08-09T06:53:27.252Z,31.77
2022-08-09T06:56:00.550Z,26.35
2022-08-09T07:00:46.830Z,22.25
2022-08-09T07:01:13.973Z,18.30
2022-08-09T07:03:53.245Z,16.42
2022-08-09T07:06:25.580Z,16.65
2022-08-09T07:08:56.340Z,16.85
2022-08-09T07:11:25.392Z,19.23
2022-08-09T07:14:05.048Z,14.25
2022-08-09T07:16:41.232Z,12.48
2022-08-09T07:19:15.523Z,17.88
2022-08-09T07:21:55.428Z,16.10
2022-08-09T07:24:32.318Z,12.05
2022-08-09T07:27:10.862Z,14.93
2022-08-09T07:29:57.074Z,20.13
2022-08-09T07:32:32.246Z,16.30
2022-08-09T07:35:11.315Z,16.75
2022-08-09T07:37:45.688Z,17.00
2022-08-09T07:40:20.686Z,19.30
2022-08-09T07:42:56.417Z,20.77
2022-08-09T07:45:39.605Z,25.05
2022-08-09T07:48:22.557Z,22.15
2022-08-09T07:51:09.560Z,17.60
2022-08-09T07:54:07.219Z,20.88
2022-08-09T07:56:50.031Z,14.05
2022-08-09T07:59:25.570Z,14.75
2022-08-09T08:02:02.618Z,17.17
2022-08-09T08:04:31.856Z,11.88
2022-08-09T08:07:00.429Z,12.95
2022-08-09T08:09:42.938Z,14.02
2022-08-09T08:12:27.705Z,11.95
2022-08-09T08:14:57.051Z,12.50
2022-08-09T08:17:35.244Z,12.20
2022-08-09T08:20:13.071Z,12.80
2022-08-09T08:22:40.412Z,12.18
2022-08-09T08:25:09.499Z,14.27
2022-08-09T08:27:43.397Z,14.02
2022-08-09T08:30:11.656Z,15.43
2022-08-09T08:32:52.868Z,14.95
2022-08-09T08:35:22.877Z,14.40
2022-08-09T08:38:01.871Z,15.35
2022-08-09T08:40:33.666Z,16.52
2022-08-09T08:43:03.245Z,18.30
2022-08-09T08:45:53.285Z,18.65
2022-08-09T08:48:22.596Z,19.77
2022-08-09T08:53:32.086Z,21.45
2022-08-09T08:56:04.709Z,17.02
2022-08-09T08:58:33.161Z,20.27
2022-08-09T09:01:08.985Z,20.88
2022-08-09T09:03:51.728Z,24.05
2022-08-09T09:06:23.070Z,23.10
2022-08-09T09:08:52.444Z,25.40
2022-08-09T09:11:21.382Z,27.30
2022-08-09T09:13:56.440Z,36.20
2022-08-09T09:16:33.662Z,32.60
2022-08-09T09:19:39.356Z,32.83
2022-08-09T09:22:11.865Z,27.48
2022-08-09T09:24:46.016Z,28.10
2022-08-09T09:28:04.525Z,24.85
2022-08-09T09:30:26.180Z,19.20
2022-08-09T09:33:16.194Z,14.05
2022-08-09T09:36:02.356Z,15.23
2022-08-09T09:38:39.770Z,16.05
2022-08-09T09:41:10.678Z,16.75
2022-08-09T09:43:41.384Z,15.07
2022-08-09T09:46:45.731Z,16.05
2022-08-09T09:49:31.663Z,17.35
2022-08-09T09:52:16.334Z,17.67
2022-08-09T09:55:27.592Z,15.18
2022-08-09T09:58:15.729Z,17.70
2022-08-09T10:00:53.966Z,15.15
2022-08-09T10:03:58.084Z,17.48
2022-08-09T10:06:51.941Z,16.55
2022-08-09T10:09:24.009Z,15.85
2022-08-09T10:12:12.563Z,14.88
2022-08-09T10:14:51.328Z,17.55
2022-08-09T10:17:50.400Z,17.67
2022-08-09T10:20:27.330Z,17.88
2022-08-09T10:23:14.172Z,13.98
2022-08-09T10:26:06.375Z,17.95
2022-08-09T10:28:34.522Z,17.55
2022-08-09T10:34:10.409Z,20.92
2022-08-09T10:36:38.789Z,18.98
2022-08-09T10:39:15.378Z,30.17
2022-08-09T10:41:43.983Z,41.25
2022-08-09T10:44:10.772Z,27.23
2022-08-09T10:47:20.323Z,16.48
2022-08-09T10:50:21.041Z,18.20
2022-08-09T10:53:10.670Z,16.55
2022-08-09T10:55:58.285Z,19.60
2022-08-09T10:58:37.088Z,19.05
2022-08-09T11:03:02.787Z,14.23
2022-08-09T11:04:20.037Z,13.38
2022-08-09T11:07:00.727Z,15.63
2022-08-09T11:09:47.742Z,15.73
2022-08-09T11:12:30.097Z,21.05
2022-08-09T11:15:19.223Z,29.08
2022-08-09T11:17:53.143Z,16.70
2022-08-09T11:20:39.707Z,16.10
2022-08-09T11:25:46.124Z,11.73
2022-08-09T11:28:38.917Z,12.32
2022-08-09T11:31:43.290Z,19.48
2022-08-09T11:34:29.656Z,10.60
2022-08-09T11:36:59.187Z,9.30
2022-08-09T11:39:25.951Z,12.13
2022-08-09T11:42:09.517Z,17.27
2022-08-09T11:44:45.881Z,9.63
2022-08-09T11:47:15.668Z,10.07
2022-08-09T11:50:56.849Z,9.63
2022-08-09T11:53:44.086Z,8.55
2022-08-09T11:56:02.058Z,9.40
2022-08-09T11:58:33.215Z,9.68
2022-08-09T12:01:08.255Z,11.45
2022-08-09T12:06:24.742Z,9.60
2022-08-09T12:08:55.980Z,9.40
2022-08-09T12:11:26.364Z,10.52
2022-08-09T12:14:10.195Z,10.32
2022-08-09T12:16:47.077Z,12.27
2022-08-09T12:19:13.963Z,9.90
2022-08-09T12:21:48.447Z,12.35
2022-08-09T12:24:24.959Z,11.05
2022-08-09T12:29:10.730Z,12.77
2022-08-09T12:30:01.441Z,11.82
2022-08-09T12:32:44.308Z,9.85
2022-08-09T12:35:13.154Z,10.57
2022-08-09T12:37:50.233Z,12.60
2022-08-09T12:40:20.569Z,12.90
2022-08-09T12:42:50.499Z,11.82
2022-08-09T12:45:34.759Z,12.95
2022-08-09T12:48:07.815Z,9.73
2022-08-09T12:50:38.518Z,12.40
2022-08-09T12:53:18.381Z,11.75
2022-08-09T12:56:11.639Z,10.52
2022-08-09T12:58:34.400Z,11.48
2022-08-09T13:01:22.091Z,15.38
2022-08-09T13:04:36.442Z,11.18
2022-08-09T13:07:13.779Z,15.18
2022-08-09T13:09:52.850Z,12.77
2022-08-09T13:12:23.189Z,14.65
2022-08-09T13:14:54.180Z,12.77
2022-08-09T13:18:03.365Z,13.70
2022-08-09T13:20:18.710Z,10.00
2022-08-09T13:23:05.564Z,10.18
2022-08-09T13:25:42.761Z,9.00
2022-08-09T13:28:24.620Z,11.38
2022-08-09T13:32:20.074Z,9.68
2022-08-09T13:33:59.706Z,10.25
2022-08-09T13:36:42.551Z,9.73
2022-08-09T13:39:30.974Z,9.63
2022-08-09T13:42:05.371Z,10.50
2022-08-09T13:44:37.970Z,10.00
2022-08-09T13:47:33.070Z,12.10
2022-08-09T13:50:04.258Z,11.77
2022-08-09T13:52:40.128Z,8.75
2022-08-09T13:55:13.558Z,8.77
2022-08-09T13:57:56.345Z,9.13
2022-08-09T14:00:28.615Z,10.02
2022-08-09T14:03:04.330Z,8.52
2022-08-09T14:05:58.862Z,9.02
2022-08-09T14:11:00.327Z,8.95
2022-08-09T14:14:22.878Z,8.60
2022-08-09T14:16:20.059Z,9.13
2022-08-09T14:18:55.913Z,9.50
2022-08-09T14:21:26.542Z,8.82
